Time;durP1;ratioP1;P1;durP2;ratioP2;P2;SDS_P1;SDS_P2;PMS_P1;PMS_P2;Temp;Humidity;BMP_temperature;BMP_pressure;BME280_temperature;BME280_humidity;BME280_pressure;Samples;Min_cycle;Max_cycle;Signal;HPM_P1;HPM_P2
2023/12/09 00:01:56;;;;;;;63.70;27.07;;;;;;;-141.97;100.00;46638.91;6214641;23;20578;-87
2023/12/09 00:04:21;;;;;;;67.10;28.27;;;;;;;-141.97;100.00;46093.22;6188687;23;20192;-88
2023/12/09 00:06:48;;;;;;;66.17;26.30;;;;;;;-141.97;100.00;46592.78;6215257;23;20138;-88
2023/12/09 00:09:14;;;;;;;62.83;26.03;;;;;;;-141.97;100.00;46475.56;6188185;23;20145;-88
2023/12/09 00:11:39;;;;;;;55.30;22.90;;;;;;;-141.97;100.00;46246.94;6188454;23;20365;-87
2023/12/09 00:14:05;;;;;;;50.97;22.47;;;;;;;-141.97;100.00;46239.25;6188454;23;20387;-87
2023/12/09 00:16:30;;;;;;;50.40;22.60;;;;;;;-141.97;100.00;46189.28;6187855;23;20146;-88
2023/12/09 00:18:57;;;;;;;49.60;21.20;;;;;;;-141.97;100.00;46581.25;6214880;23;20153;-88
2023/12/09 00:21:23;;;;;;;51.33;20.73;;;;;;;-141.97;100.00;46193.13;6187790;23;20173;-89
2023/12/09 00:23:48;;;;;;;47.10;20.37;;;;;;;-141.97;100.00;46245.00;6188347;23;20380;-88
2023/12/09 00:26:14;;;;;;;46.63;20.40;;;;;;;-141.97;100.00;46281.50;6215156;23;20141;-89
2023/12/09 00:28:39;;;;;;;47.07;19.80;;;;;;;-141.97;100.00;46239.25;6214937;23;20196;-89
2023/12/09 00:31:05;;;;;;;47.77;19.60;;;;;;;-141.97;100.00;46118.19;6214951;23;20623;-89
2023/12/09 00:33:30;;;;;;;46.60;19.60;;;;;;;-141.97;100.00;46085.53;6187734;23;20148;-89
2023/12/09 00:35:56;;;;;;;45.10;19.70;;;;;;;-141.97;100.00;46097.06;6214982;23;20196;-88
2023/12/09 00:38:21;;;;;;;49.10;21.60;;;;;;;-141.97;100.00;46675.41;6187964;23;20229;-89
2023/12/09 00:40:46;;;;;;;49.20;21.57;;;;;;;-141.97;100.00;46097.06;6187754;23;20537;-88
2023/12/09 00:43:12;;;;;;;46.27;21.13;;;;;;;-141.97;100.00;46125.88;6214629;23;20148;-87
2023/12/09 00:45:37;;;;;;;49.43;20.83;;;;;;;-141.97;100.00;46633.13;6188403;23;20133;-88
2023/12/09 00:48:03;;;;;;;52.37;21.73;;;;;;;-141.97;100.00;46202.72;6187751;23;20563;-88
2023/12/09 00:50:28;;;;;;;50.00;21.67;;;;;;;-141.97;100.00;46642.75;6187955;23;20134;-86
2023/12/09 00:52:53;;;;;;;50.63;21.80;;;;;;;-141.97;100.00;46164.31;6214504;23;20212;-85
2023/12/09 00:55:19;;;;;;;49.03;21.70;;;;;;;-141.97;100.00;46181.59;6187733;23;20145;-86
2023/12/09 00:57:44;;;;;;;51.70;22.03;;;;;;;-141.97;100.00;46612.00;6213918;23;20193;-86
2023/12/09 01:00:10;;;;;;;45.23;20.90;;;;;;;-141.97;100.00;46083.63;6187854;23;20543;-85
2023/12/09 01:02:38;;;;;;;48.77;21.20;;;;;;;-141.97;100.00;45979.88;6213993;23;20145;-86
2023/12/09 01:05:05;;;;;;;47.13;20.43;;;;;;;-141.97;100.00;46273.81;6187418;23;20384;-85
2023/12/09 01:07:30;;;;;;;48.43;21.07;;;;;;;-141.97;100.00;46083.63;6217747;23;20357;-86
2023/12/09 01:09:56;;;;;;;46.40;20.63;;;;;;;-141.97;100.00;46293.03;6222840;23;20428;-86
2023/12/09 01:12:21;;;;;;;51.30;20.73;;;;;;;-141.97;100.00;46158.53;6214245;23;20142;-85
2023/12/09 01:14:46;;;;;;;47.70;20.33;;;;;;;-141.97;100.00;46669.63;6187355;23;20490;-86
2023/12/09 01:17:12;;;;;;;52.53;21.33;;;;;;;-141.97;100.00;46283.44;6214608;23;20161;-85
2023/12/09 01:19:37;;;;;;;51.67;20.87;;;;;;;-141.97;100.00;46287.28;6187241;23;20489;-85
2023/12/09 01:22:03;;;;;;;49.23;21.13;;;;;;;-141.97;100.00;46646.59;6213968;23;20166;-86
2023/12/09 01:24:28;;;;;;;50.70;21.93;;;;;;;-141.97;100.00;46266.13;6187166;23;20141;-85
2023/12/09 01:26:54;;;;;;;49.40;21.40;;;;;;;-141.97;100.00;46066.31;6215074;23;20628;-86
2023/12/09 01:29:19;;;;;;;53.23;22.63;;;;;;;-141.97;100.00;46110.50;6190960;23;20175;-84
2023/12/09 01:31:44;;;;;;;53.20;21.70;;;;;;;-141.97;100.00;46392.94;6190875;23;20177;-84
2023/12/09 01:34:10;;;;;;;55.17;21.77;;;;;;;-141.97;100.00;46139.34;6215200;23;20228;-84
2023/12/09 01:36:35;;;;;;;50.37;21.80;;;;;;;-141.97;100.00;46283.44;6217191;23;20200;-84
2023/12/09 01:39:01;;;;;;;55.37;22.40;;;;;;;-141.97;100.00;46156.63;6188800;23;20224;-86
2023/12/09 01:41:28;;;;;;;55.03;23.63;;;;;;;-141.97;100.00;46162.38;6216505;23;20157;-85
2023/12/09 01:43:53;;;;;;;56.90;24.13;;;;;;;-141.97;100.00;46227.72;6189540;23;20579;-87
2023/12/09 01:46:20;;;;;;;60.10;24.97;;;;;;;-141.97;100.00;46496.72;6217976;23;20371;-87
2023/12/09 01:48:46;;;;;;;55.97;24.37;;;;;;;-141.97;100.00;46293.03;6219157;23;20133;-86
2023/12/09 01:51:13;;;;;;;56.07;22.83;;;;;;;-141.97;100.00;46615.84;6222224;23;20361;-87
2023/12/09 01:53:39;;;;;;;61.80;23.47;;;;;;;-141.97;100.00;46166.22;6215012;23;20364;-86
2023/12/09 01:56:10;;;;;;;56.30;22.40;;;;;;;-141.97;100.00;46314.16;6190987;23;20453;-87
2023/12/09 01:58:37;;;;;;;52.53;21.43;;;;;;;-141.97;100.00;46004.84;6214584;23;20193;-86
2023/12/09 02:01:03;;;;;;;59.77;23.43;;;;;;;-141.97;100.00;46319.94;6188826;23;20412;-86
2023/12/09 02:03:32;;;;;;;57.50;23.17;;;;;;;-141.97;100.00;46312.25;6217476;23;20368;-86
2023/12/09 02:05:58;;;;;;;56.70;22.47;;;;;;;-141.97;100.00;46137.41;6235506;23;20168;-86
2023/12/09 02:08:24;;;;;;;56.33;23.13;;;;;;;-141.97;100.00;46700.38;6237709;23;20380;-86
2023/12/09 02:11:05;;;;;;;57.63;22.13;;;;;;;-141.97;100.00;46306.50;6188426;23;20184;-86
2023/12/09 02:13:41;;;;;;;55.93;22.83;;;;;;;-141.97;100.00;46623.53;6241898;23;20141;-86
2023/12/09 02:16:14;;;;;;;60.40;24.67;;;;;;;-141.97;100.00;46185.44;6213278;23;20407;-86
2023/12/09 02:18:43;;;;;;;68.60;26.77;;;;;;;-141.97;100.00;46218.09;6194975;23;20738;-86
2023/12/09 02:21:08;;;;;;;88.23;33.83;;;;;;;-141.97;100.00;46314.16;6231285;23;20418;-86
2023/12/09 02:23:34;;;;;;;84.20;34.40;;;;;;;-141.97;100.00;46041.34;6174986;23;20388;-87
2023/12/09 02:26:07;;;;;;;64.93;26.70;;;;;;;-141.97;100.00;46631.22;6219038;23;20424;-87
2023/12/09 02:28:37;;;;;;;62.07;25.93;;;;;;;-141.97;100.00;46300.72;6188574;23;20142;-87
2023/12/09 02:31:13;;;;;;;57.87;23.90;;;;;;;-141.97;100.00;46331.47;6215350;23;20357;-86
2023/12/09 02:33:43;;;;;;;55.80;21.97;;;;;;;-141.97;100.00;46323.78;6214421;23;20360;-86
2023/12/09 02:36:10;;;;;;;58.63;22.40;;;;;;;-141.97;100.00;46300.72;6223299;23;20367;-85
2023/12/09 02:38:39;;;;;;;61.77;24.47;;;;;;;-141.97;100.00;46308.41;6202312;23;20365;-85
2023/12/09 02:41:09;;;;;;;60.03;23.70;;;;;;;-141.97;100.00;46200.81;6228737;23;20419;-87
2023/12/09 02:43:35;;;;;;;53.50;22.63;;;;;;;-141.97;100.00;46312.25;6220203;23;20388;-87
2023/12/09 02:46:01;;;;;;;54.73;22.67;;;;;;;-141.97;100.00;46562.03;6219749;23;20364;-85
2023/12/09 02:48:26;;;;;;;57.50;23.30;;;;;;;-141.97;100.00;46337.22;6219893;23;20361;-85
2023/12/09 02:50:51;;;;;;;55.03;23.10;;;;;;;-141.97;100.00;46029.81;6219217;23;20595;-86
2023/12/09 02:53:17;;;;;;;63.27;24.37;;;;;;;-141.97;100.00;46256.53;6219120;23;20141;-86
2023/12/09 02:55:42;;;;;;;65.60;24.77;;;;;;;-141.97;100.00;46356.44;6188692;23;20202;-87
2023/12/09 02:58:07;;;;;;;61.70;24.23;;;;;;;-141.97;100.00;46285.34;6216042;23;20538;-85
2023/12/09 03:00:33;;;;;;;65.07;25.33;;;;;;;-141.97;100.00;46223.88;6216705;23;20161;-85
2023/12/09 03:02:58;;;;;;;59.23;23.73;;;;;;;-141.97;100.00;46147.03;6217692;23;20148;-84
2023/12/09 03:05:24;;;;;;;67.87;24.90;;;;;;;-141.97;100.00;46343.00;6191984;23;20156;-84
2023/12/09 03:07:49;;;;;;;60.03;23.07;;;;;;;-141.97;100.00;46571.66;6217408;23;20472;-84
2023/12/09 03:10:15;;;;;;;59.07;23.97;;;;;;;-141.97;100.00;46212.34;6220685;23;20167;-84
2023/12/09 03:12:40;;;;;;;56.13;23.77;;;;;;;-141.97;100.00;46204.66;6218420;23;20228;-85
2023/12/09 03:15:06;;;;;;;66.20;24.57;;;;;;;-141.97;100.00;46354.53;6217766;23;20141;-85
2023/12/09 03:17:33;;;;;;;64.67;26.77;;;;;;;-141.97;100.00;46147.03;6190769;23;20145;-84
2023/12/09 03:19:58;;;;;;;68.93;26.63;;;;;;;-141.97;100.00;46306.50;6217413;23;20133;-85
2023/12/09 03:22:24;;;;;;;74.90;28.57;;;;;;;-141.97;100.00;46538.97;6190027;23;20459;-85
2023/12/09 03:24:49;;;;;;;113.70;41.07;;;;;;;-141.97;100.00;46337.22;6216666;23;20620;-85
2023/12/09 03:27:14;;;;;;;216.80;73.80;;;;;;;-141.97;100.00;46391.03;6189216;23;20169;-85
2023/12/09 03:29:40;;;;;;;252.57;85.03;;;;;;;-141.97;100.00;46481.34;6216164;23;20134;-85
2023/12/09 03:32:06;;;;;;;230.03;69.43;;;;;;;-141.97;100.00;46554.34;6215717;23;20137;-85
2023/12/09 03:34:31;;;;;;;86.97;29.87;;;;;;;-141.97;100.00;46273.81;6216113;23;20129;-85
2023/12/09 03:36:57;;;;;;;161.63;23.40;;;;;;;-141.97;100.00;46221.94;6189243;23;20149;-85
2023/12/09 03:39:23;;;;;;;151.37;25.57;;;;;;;-141.97;100.00;46294.97;6215875;23;20134;-85
2023/12/09 03:41:48;;;;;;;121.40;21.67;;;;;;;-141.97;100.00;46266.13;6215719;23;20548;-85
2023/12/09 03:44:14;;;;;;;68.97;16.73;;;;;;;-141.97;100.00;46585.09;6216179;23;20357;-85
2023/12/09 03:46:40;;;;;;;113.33;20.87;;;;;;;-141.97;100.00;46220.03;6189502;23;20579;-84
2023/12/09 03:49:05;;;;;;;177.13;24.03;;;;;;;-141.97;100.00;46158.53;6189084;23;20149;-85
2023/12/09 03:51:31;;;;;;;136.80;23.43;;;;;;;-141.97;100.00;46367.97;6188740;23;20629;-85
2023/12/09 03:53:56;;;;;;;327.83;27.63;;;;;;;-141.97;100.00;46139.34;6214692;23;20137;-84
2023/12/09 03:56:21;;;;;;;78.60;18.40;;;;;;;-141.97;100.00;46546.66;6188018;23;20138;-85
2023/12/09 03:58:47;;;;;;;77.77;18.33;;;;;;;-141.97;100.00;46638.91;6187880;23;20272;-85
2023/12/09 04:01:13;;;;;;;111.03;21.23;;;;;;;-141.97;100.00;46410.25;6214553;23;20169;-85
2023/12/09 04:03:39;;;;;;;106.87;19.20;;;;;;;-141.97;100.00;46058.63;6187609;23;21179;-84
2023/12/09 04:06:05;;;;;;;75.73;18.60;;;;;;;-141.97;100.00;46366.06;6187923;23;20146;-85
2023/12/09 04:08:31;;;;;;;80.10;17.87;;;;;;;-141.97;100.00;46264.22;6187874;23;20173;-86
2023/12/09 04:10:56;;;;;;;81.77;19.50;;;;;;;-141.97;100.00;46437.13;6214712;23;20376;-85
2023/12/09 04:13:22;;;;;;;55.53;18.53;;;;;;;-141.97;100.00;46642.75;6187492;23;20145;-86
2023/12/09 04:15:47;;;;;;;58.00;17.87;;;;;;;-141.97;100.00;46237.31;6187961;23;20138;-86
2023/12/09 04:18:13;;;;;;;57.93;18.53;;;;;;;-141.97;100.00;46293.03;6214496;23;20138;-86
2023/12/09 04:20:38;;;;;;;63.63;18.63;;;;;;;-141.97;100.00;46231.56;6214788;23;20622;-87
2023/12/09 04:23:04;;;;;;;51.93;18.63;;;;;;;-141.97;100.00;46279.59;6189234;23;20613;-87
2023/12/09 04:25:30;;;;;;;57.63;19.50;;;;;;;-141.97;100.00;46220.03;6188667;23;20154;-87
2023/12/09 04:27:56;;;;;;;48.23;18.17;;;;;;;-141.97;100.00;46327.63;6214374;23;20692;-86
2023/12/09 04:30:24;;;;;;;49.83;19.53;;;;;;;-141.97;100.00;46596.63;6214398;23;20630;-86
2023/12/09 04:32:49;;;;;;;53.80;18.87;;;;;;;-141.97;100.00;46212.34;6187487;23;20154;-86
2023/12/09 04:35:15;;;;;;;57.53;19.10;;;;;;;-141.97;100.00;46400.63;6214080;23;20369;-86
2023/12/09 04:37:41;;;;;;;61.50;19.13;;;;;;;-141.97;100.00;46141.25;6187788;23;20225;-86
2023/12/09 04:40:13;;;;;;;59.93;19.50;;;;;;;-141.97;100.00;46742.66;6214424;23;20137;-87
2023/12/09 04:42:39;;;;;;;57.60;17.37;;;;;;;-141.97;100.00;46271.91;6187421;23;20177;-86
2023/12/09 04:45:06;;;;;;;63.33;18.53;;;;;;;-141.97;100.00;46727.28;6213964;23;20387;-86
2023/12/09 04:47:32;;;;;;;59.73;19.20;;;;;;;-141.97;100.00;46298.81;6187070;23;20450;-87
2023/12/09 04:49:58;;;;;;;133.17;35.43;;;;;;;-141.97;100.00;46702.31;6213829;23;20472;-86
2023/12/09 04:52:23;;;;;;;152.70;42.70;;;;;;;-141.97;100.00;46567.81;6213946;23;20991;-85
2023/12/09 04:54:49;;;;;;;131.27;33.27;;;;;;;-141.97;100.00;46279.59;6214177;23;20192;-86
2023/12/09 04:57:15;;;;;;;115.97;24.93;;;;;;;-141.97;100.00;46273.81;6187031;23;20225;-86
2023/12/09 04:59:40;;;;;;;69.70;19.43;;;;;;;-141.97;100.00;46373.72;6187466;23;20569;-85
2023/12/09 05:02:05;;;;;;;85.90;25.03;;;;;;;-141.97;100.00;46790.69;6213222;23;20181;-86
2023/12/09 05:04:31;;;;;;;79.70;17.00;;;;;;;-141.97;100.00;46346.84;6187087;23;20200;-87
2023/12/09 05:06:56;;;;;;;79.07;20.00;;;;;;;-141.97;100.00;46289.19;6213776;23;20484;-86
2023/12/09 05:09:24;;;;;;;61.30;17.80;;;;;;;-141.97;100.00;46658.13;6186991;23;20142;-87
2023/12/09 05:11:50;;;;;;;77.53;22.10;;;;;;;-141.97;100.00;46421.78;6188022;23;20215;-85
2023/12/09 05:14:16;;;;;;;131.37;20.63;;;;;;;-141.97;100.00;46250.78;6216977;23;20361;-85
2023/12/09 05:16:41;;;;;;;97.03;17.90;;;;;;;-141.97;100.00;46825.28;6186965;23;20153;-85
2023/12/09 05:19:06;;;;;;;153.57;17.70;;;;;;;-141.97;100.00;46231.56;6186711;23;20232;-85
2023/12/09 05:21:32;;;;;;;253.17;25.87;;;;;;;-141.97;100.00;46279.59;6214481;23;20618;-85
2023/12/09 05:23:57;;;;;;;137.93;25.60;;;;;;;-141.97;100.00;46298.81;6213308;23;20596;-85
2023/12/09 05:26:27;;;;;;;110.23;25.67;;;;;;;-141.97;100.00;46172.00;6213750;23;20140;-85
2023/12/09 05:28:54;;;;;;;97.00;30.17;;;;;;;-141.97;100.00;46435.22;6214421;23;20133;-85
2023/12/09 05:31:20;;;;;;;96.73;34.93;;;;;;;-141.97;100.00;46806.06;6214066;23;20348;-85
2023/12/09 05:33:46;;;;;;;85.80;32.30;;;;;;;-141.97;100.00;46369.88;6214115;23;20444;-85
2023/12/09 05:36:11;;;;;;;77.07;28.07;;;;;;;-141.97;100.00;46343.00;6213432;23;20814;-85
2023/12/09 05:38:37;;;;;;;63.47;21.13;;;;;;;-141.97;100.00;46229.63;6213780;23;20559;-86
2023/12/09 05:41:04;;;;;;;82.83;28.17;;;;;;;-141.97;100.00;46204.66;6215321;23;20235;-86
2023/12/09 05:43:29;;;;;;;68.23;23.53;;;;;;;-141.97;100.00;46431.38;6211507;23;20373;-85
2023/12/09 05:45:54;;;;;;;92.63;26.40;;;;;;;-141.97;100.00;46808.00;6225110;23;20451;-85
2023/12/09 05:48:20;;;;;;;95.43;32.70;;;;;;;-141.97;100.00;46427.53;6188836;23;20145;-85
2023/12/09 05:50:46;;;;;;;98.30;31.97;;;;;;;-141.97;100.00;46389.09;6189198;23;20195;-86
2023/12/09 05:53:11;;;;;;;101.63;29.83;;;;;;;-141.97;100.00;46429.47;6217798;23;20145;-86
2023/12/09 05:55:37;;;;;;;169.70;53.80;;;;;;;-141.97;100.00;46671.56;6215100;23;20125;-85
2023/12/09 05:58:02;;;;;;;191.33;59.30;;;;;;;-141.97;100.00;46350.69;6213720;23;20196;-84
2023/12/09 06:00:28;;;;;;;166.07;50.17;;;;;;;-141.97;100.00;46200.81;6215053;23;20175;-86
2023/12/09 06:02:54;;;;;;;214.23;69.87;;;;;;;-141.97;100.00;46419.84;6214550;23;20245;-85
2023/12/09 06:05:19;;;;;;;188.93;52.70;;;;;;;-141.97;100.00;46343.00;6215914;23;20176;-85
2023/12/09 06:07:45;;;;;;;255.43;82.93;;;;;;;-141.97;100.00;46398.72;6189091;23;20228;-85
2023/12/09 06:10:10;;;;;;;243.00;56.97;;;;;;;-141.97;100.00;46715.75;6216848;23;20161;-85
2023/12/09 06:12:35;;;;;;;255.83;68.23;;;;;;;-141.97;100.00;46635.06;6214495;23;20138;-85
2023/12/09 06:15:01;;;;;;;285.67;61.53;;;;;;;-141.97;100.00;46097.06;6187414;23;20179;-85
2023/12/09 06:17:26;;;;;;;158.17;36.73;;;;;;;-141.97;100.00;46093.22;6213022;23;20570;-85
2023/12/09 06:19:52;;;;;;;202.13;59.50;;;;;;;-141.97;100.00;46440.97;6213193;23;20652;-84
2023/12/09 06:22:17;;;;;;;207.30;55.73;;;;;;;-141.97;100.00;46391.03;6185663;23;20235;-83
2023/12/09 06:24:44;;;;;;;294.47;65.33;;;;;;;-141.97;100.00;46444.81;6213003;23;20138;-85
2023/12/09 06:27:10;;;;;;;239.73;55.73;;;;;;;-141.97;100.00;46335.31;6213120;23;20196;-84
2023/12/09 06:29:37;;;;;;;188.43;36.97;;;;;;;-141.97;100.00;46431.38;6213019;23;20369;-84
2023/12/09 06:32:03;;;;;;;249.53;62.00;;;;;;;-141.97;100.00;46416.00;6215898;23;20367;-84
2023/12/09 06:34:28;;;;;;;238.13;51.33;;;;;;;-141.97;100.00;46341.06;6213811;23;20384;-84
2023/12/09 06:36:54;;;;;;;197.13;45.77;;;;;;;-141.97;100.00;46235.41;6213353;23;20715;-84
2023/12/09 06:39:19;;;;;;;222.70;52.80;;;;;;;-141.97;100.00;46389.09;6216954;23;20484;-83
2023/12/09 06:41:44;;;;;;;175.43;45.97;;;;;;;-141.97;100.00;46183.53;6195810;23;20181;-83
2023/12/09 06:44:10;;;;;;;173.63;51.40;;;;;;;-141.97;100.00;46316.09;6188155;23;20163;-88
2023/12/09 06:46:38;;;;;;;224.93;63.00;;;;;;;-141.97;100.00;46381.41;6213877;23;20165;-89
2023/12/09 06:49:05;;;;;;;181.53;44.70;;;;;;;-141.97;100.00;46596.63;6187325;23;20180;-86
2023/12/09 06:51:30;;;;;;;195.63;45.43;;;;;;;-141.97;100.00;46467.88;6213679;23;20381;-85
2023/12/09 06:53:56;;;;;;;238.40;64.30;;;;;;;-141.97;100.00;46369.88;6214593;23;20372;-85
2023/12/09 06:56:22;;;;;;;187.83;46.07;;;;;;;-141.97;100.00;46158.53;6214601;23;20157;-84
2023/12/09 06:58:47;;;;;;;237.40;61.10;;;;;;;-141.97;100.00;46656.19;6217089;23;20197;-85
2023/12/09 07:01:19;;;;;;;196.77;55.47;;;;;;;-141.97;100.00;46381.41;6217620;23;20610;-84
2023/12/09 07:03:45;;;;;;;208.90;52.40;;;;;;;-141.97;100.00;46515.91;6234531;23;20130;-85
2023/12/09 07:06:10;;;;;;;150.53;40.77;;;;;;;-141.97;100.00;46350.69;6220933;23;20365;-84
2023/12/09 07:08:36;;;;;;;202.43;59.17;;;;;;;-141.97;100.00;46352.59;6219923;23;20181;-85
2023/12/09 07:11:01;;;;;;;317.17;88.87;;;;;;;-141.97;100.00;46658.13;6192099;23;20172;-85
2023/12/09 07:13:27;;;;;;;202.73;52.33;;;;;;;-141.97;100.00;46156.63;6189605;23;20168;-88
2023/12/09 07:15:52;;;;;;;172.67;53.60;;;;;;;-141.97;100.00;46275.75;6221377;23;20141;-84
2023/12/09 07:18:17;;;;;;;177.80;49.70;;;;;;;-141.97;100.00;46346.84;6202967;23;20145;-86
2023/12/09 07:20:43;;;;;;;156.63;50.73;;;;;;;-141.97;100.00;46594.69;6215827;23;20245;-84
2023/12/09 07:23:09;;;;;;;168.13;41.17;;;;;;;-141.97;100.00;46216.19;6214069;23;20141;-85
2023/12/09 07:25:34;;;;;;;146.07;46.70;;;;;;;-141.97;100.00;46446.75;6215242;23;20133;-85
2023/12/09 07:27:59;;;;;;;153.17;46.13;;;;;;;-141.97;100.00;46360.28;6189204;23;20173;-84
2023/12/09 07:30:25;;;;;;;146.90;41.47;;;;;;;-141.97;100.00;46306.50;6215996;23;20141;-85
2023/12/09 07:32:50;;;;;;;174.30;45.30;;;;;;;-141.97;100.00;46122.03;6216187;23;20200;-85
2023/12/09 07:35:17;;;;;;;146.53;29.57;;;;;;;-141.97;100.00;46362.22;6195563;23;20641;-84
2023/12/09 07:37:43;;;;;;;180.90;27.87;;;;;;;-141.97;100.00;46759.97;6219346;23;20213;-83
2023/12/09 07:40:11;;;;;;;126.40;29.43;;;;;;;-141.97;100.00;46623.53;6216448;23;20361;-84
2023/12/09 07:42:37;;;;;;;151.77;36.37;;;;;;;-141.97;100.00;46398.72;6216189;23;20361;-84
2023/12/09 07:45:03;;;;;;;126.53;31.07;;;;;;;-141.97;100.00;46385.25;6216580;23;20841;-84
2023/12/09 07:47:29;;;;;;;106.43;30.10;;;;;;;-141.97;100.00;46162.38;6219076;23;20357;-85
2023/12/09 07:49:55;;;;;;;143.10;36.20;;;;;;;-141.97;100.00;46175.84;6219678;23;21329;-85
2023/12/09 07:52:20;;;;;;;179.53;48.33;;;;;;;-141.97;100.00;46385.25;6220795;23;20141;-86
2023/12/09 07:54:46;;;;;;;199.60;59.87;;;;;;;-141.97;100.00;46354.53;6219946;23;20240;-90
2023/12/09 07:57:11;;;;;;;264.20;76.73;;;;;;;-141.97;100.00;46394.88;6223227;23;20189;-84
2023/12/09 07:59:36;;;;;;;269.20;87.00;;;;;;;-141.97;100.00;46221.94;6217708;23;20149;-87
2023/12/09 08:02:02;;;;;;;186.90;69.73;;;;;;;-141.97;100.00;46246.94;6189476;23;20256;-88
2023/12/09 08:04:27;;;;;;;192.60;67.13;;;;;;;-141.97;100.00;46037.50;6215091;23;20169;-88
2023/12/09 08:06:53;;;;;;;171.40;60.57;;;;;;;-141.97;100.00;46343.00;6215378;23;20586;-88
2023/12/09 08:09:20;;;;;;;125.10;46.90;;;;;;;-141.97;100.00;46172.00;6187624;23;20204;-88
2023/12/09 08:11:46;;;;;;;112.70;39.83;;;;;;;-141.97;100.00;46193.13;6214435;23;20361;-90
2023/12/09 08:14:11;;;;;;;136.50;52.07;;;;;;;-141.97;100.00;46112.44;6189406;23;20369;-90
2023/12/09 08:16:37;;;;;;;108.47;39.13;;;;;;;-141.97;100.00;46089.38;6188664;23;20146;-89
2023/12/09 08:19:02;;;;;;;101.87;40.30;;;;;;;-141.97;100.00;46298.81;6216133;23;20601;-87
2023/12/09 08:21:27;;;;;;;180.07;70.50;;;;;;;-141.97;100.00;46258.44;6216092;23;20254;-86
2023/12/09 08:23:54;;;;;;;86.47;35.07;;;;;;;-141.97;100.00;46316.09;6214262;23;20167;-86
2023/12/09 08:26:19;;;;;;;95.70;36.87;;;;;;;-141.97;100.00;46646.59;6214984;23;20134;-86
2023/12/09 08:28:45;;;;;;;67.50;28.10;;;;;;;-141.97;100.00;46300.72;6215735;23;20380;-86
2023/12/09 08:31:10;;;;;;;96.80;36.33;;;;;;;-141.97;100.00;46268.06;6216950;23;20157;-85
2023/12/09 08:33:36;;;;;;;102.30;39.87;;;;;;;-141.97;100.00;46131.66;6187620;23;20225;-86
2023/12/09 08:36:01;;;;;;;77.03;34.90;;;;;;;-141.97;100.00;45908.78;6187180;23;20145;-85
2023/12/09 08:38:27;;;;;;;109.30;49.87;;;;;;;-141.97;100.00;46343.00;6213315;23;20574;-85
2023/12/09 08:40:53;;;;;;;90.63;39.90;;;;;;;-141.97;100.00;46002.94;6213614;23;20172;-86
2023/12/09 08:43:19;;;;;;;52.00;25.97;;;;;;;-141.97;100.00;46223.88;6213875;23;20181;-85
2023/12/09 08:45:44;;;;;;;42.37;20.47;;;;;;;-141.97;100.00;46150.84;6219440;23;20391;-85
2023/12/09 08:48:10;;;;;;;42.73;19.90;;;;;;;-141.97;100.00;46339.16;6218237;23;20133;-86
2023/12/09 08:50:36;;;;;;;59.43;26.90;;;;;;;-141.97;100.00;46104.75;6214049;23;20142;-86
2023/12/09 08:53:02;;;;;;;34.83;17.67;;;;;;;-141.97;100.00;46196.97;6214097;23;20590;-86
2023/12/09 08:55:28;;;;;;;44.93;23.33;;;;;;;-141.97;100.00;46392.94;6213751;23;20136;-85
2023/12/09 08:57:53;;;;;;;57.30;28.17;;;;;;;-141.97;100.00;46125.88;6181954;23;20466;-85
2023/12/09 09:00:20;;;;;;;72.87;33.03;;;;;;;-141.97;100.00;46012.53;6183787;23;20142;-85
2023/12/09 09:02:46;;;;;;;53.60;23.90;;;;;;;-141.97;100.00;45947.22;6183760;23;20590;-87
2023/12/09 09:05:12;;;;;;;119.40;47.70;;;;;;;-141.97;100.00;46087.47;6184438;23;20361;-88
2023/12/09 09:07:40;;;;;;;53.93;26.20;;;;;;;-141.97;100.00;46300.72;6184864;23;20145;-87
2023/12/09 09:10:07;;;;;;;49.17;24.00;;;;;;;-141.97;100.00;46054.81;6183707;23;20138;-87
2023/12/09 09:12:32;;;;;;;30.83;14.70;;;;;;;-141.97;100.00;46195.06;6190217;23;20134;-88
2023/12/09 09:14:57;;;;;;;27.93;14.07;;;;;;;-141.97;100.00;46204.66;6184955;23;20634;-89
2023/12/09 09:17:23;;;;;;;24.00;11.93;;;;;;;-141.97;100.00;46010.63;6188542;23;20157;-87
2023/12/09 09:19:48;;;;;;;32.63;16.10;;;;;;;-141.97;100.00;45989.47;6185707;23;20193;-88
2023/12/09 09:22:15;;;;;;;44.23;20.70;;;;;;;-141.97;100.00;46183.53;6191636;23;20163;-86
2023/12/09 09:24:40;;;;;;;47.00;22.40;;;;;;;-141.97;100.00;46590.84;6188911;23;20138;-88
2023/12/09 09:27:06;;;;;;;45.43;22.73;;;;;;;-141.97;100.00;46573.56;6192341;23;20142;-87
2023/12/09 09:29:31;;;;;;;30.87;14.97;;;;;;;-141.97;100.00;45985.63;6200073;23;20197;-87
2023/12/09 09:44:01;;;;;;;119.13;41.10;;;;;;;-141.97;100.00;46173.91;5089533;27;20549;-87
2023/12/09 09:46:28;;;;;;;22.40;10.73;;;;;;;-141.97;100.00;46112.44;5089291;28;20195;-85
2023/12/09 09:48:55;;;;;;;55.43;25.00;;;;;;;-141.97;100.00;45987.56;5088512;28;20179;-84
2023/12/09 09:51:28;;;;;;;23.50;11.23;;;;;;;-141.97;100.00;46562.03;5087684;28;20168;-86
2023/12/09 09:54:19;;;;;;;24.23;12.70;;;;;;;-141.97;100.00;46154.69;5088622;28;20625;-85
2023/12/09 09:56:45;;;;;;;29.70;13.13;;;;;;;-141.97;100.00;46125.88;5089335;28;20224;-85
2023/12/09 09:59:11;;;;;;;22.37;10.50;;;;;;;-141.97;100.00;46083.63;5088627;28;20723;-85
2023/12/09 10:01:37;;;;;;;24.03;9.93;;;;;;;-141.97;100.00;46016.38;5088568;28;20196;-84
2023/12/09 10:04:03;;;;;;;41.00;17.73;;;;;;;-141.97;100.00;45979.88;5088506;28;20655;-84
2023/12/09 10:06:29;;;;;;;19.47;9.97;;;;;;;-141.97;100.00;46152.78;5088235;28;20160;-84
2023/12/09 10:08:55;;;;;;;42.13;24.77;;;;;;;-141.97;100.00;46196.97;5087087;28;20172;-85
2023/12/09 10:11:21;;;;;;;17.67;9.00;;;;;;;-141.97;100.00;46052.88;5087165;28;20168;-84
2023/12/09 10:13:46;;;;;;;36.97;18.23;;;;;;;-141.97;100.00;46181.59;5087978;28;20164;-85
2023/12/09 10:16:12;;;;;;;25.03;10.97;;;;;;;-141.97;100.00;46341.06;5087868;28;20607;-84
2023/12/09 10:18:44;;;;;;;28.10;13.70;;;;;;;-141.97;100.00;46012.53;5087706;28;20165;-84
2023/12/09 10:21:09;;;;;;;26.20;14.23;;;;;;;-141.97;100.00;46022.13;5089742;28;20164;-86
2023/12/09 10:23:35;;;;;;;50.80;29.00;;;;;;;-141.97;100.00;46439.06;5088429;28;20690;-85
2023/12/09 10:26:01;;;;;;;26.50;13.13;;;;;;;-141.97;100.00;46333.38;5088005;28;20175;-84
2023/12/09 10:28:27;;;;;;;29.10;16.17;;;;;;;-141.97;100.00;45981.78;5088076;28;20563;-85
2023/12/09 10:30:52;;;;;;;24.00;12.07;;;;;;;-141.97;100.00;46396.78;5090892;28;20172;-84
2023/12/09 10:33:18;;;;;;;22.10;12.07;;;;;;;-141.97;100.00;46077.84;5090759;28;20179;-87
2023/12/09 10:35:44;;;;;;;31.03;17.07;;;;;;;-141.97;100.00;46450.59;5090707;28;20175;-85
2023/12/09 10:38:09;;;;;;;26.23;13.80;;;;;;;-141.97;100.00;46162.38;5090593;28;20314;-85
2023/12/09 10:40:37;;;;;;;40.40;16.47;;;;;;;-141.97;100.00;46072.09;5089250;28;20198;-84
2023/12/09 10:43:05;;;;;;;35.67;16.80;;;;;;;-141.97;100.00;46477.50;5087417;28;20224;-84
2023/12/09 10:45:31;;;;;;;33.77;14.97;;;;;;;-141.97;100.00;46060.56;5087822;28;20160;-85
2023/12/09 10:47:57;;;;;;;33.33;17.83;;;;;;;-141.97;100.00;46127.81;5087927;28;20222;-85
2023/12/09 10:50:22;;;;;;;32.63;18.13;;;;;;;-141.97;100.00;46033.66;5087823;28;20168;-86
2023/12/09 10:52:48;;;;;;;33.77;16.83;;;;;;;-141.97;100.00;46423.69;5087779;28;20646;-85
2023/12/09 10:55:14;;;;;;;35.00;18.67;;;;;;;-141.97;100.00;46275.75;5074200;28;20670;-86
2023/12/09 10:57:41;;;;;;;25.00;13.77;;;;;;;-141.97;100.00;46489.03;5074397;28;20367;-87
2023/12/09 11:00:10;;;;;;;24.57;12.57;;;;;;;-141.97;100.00;46471.72;5073858;28;20172;-86